Trinidad, CA (95570)

4:19 PM PDT on April 27, 2015 (GMT -0700)
Trinidad Village | | Change Station
CLOSE
Current Station
Personal Weather Station
Location: Trinidad, CA
Elevation: 180 ft
Nearby Weather Stations

Elev 180 ft 41.06 °N, 124.14 °W | Updated 9 seconds ago

Clear
Clear
59.5 °F
Feels Like 59.5 °F
N
5.1
Wind Variable Wind from SSE
Gusts 7.0 mph

Today
High -- | Low -- °F
--% Chance of Precip.
Yesterday
High -- | Low -- °F
Precip. -- in
6:19 AM 8:09 PM
Waxing Gibbous, 68% visible
Pressure 30.05 in
Visibility 10.0 miles
Clouds Clear
Dew Point 52 °F
Humidity 76%
Rainfall 0.00 in
Snow Depth Not available.
UV 7 out of 12
Pollen 8.30 out of 12
Air Quality Not available.
Flu Activity Sporadic
METAR KACV 272253Z AUTO 33007KT 300V360 10SM CLR 15/10 A3003 RMK AO2 SLP174 T01500100

More Conditions Fewer Conditions

Pressure 30.05 in
Visibility 10.0 miles
Clouds Clear
Dew Point 52 °F
Humidity 76%
Rainfall 0.00 in
Snow Depth Not available.
UV 7 out of 12
Pollen 8.30 out of 12
Air Quality Not available.
Flu Activity Sporadic
METAR KACV 272253Z AUTO 33007KT 300V360 10SM CLR 15/10 A3003 RMK AO2 SLP174 T01500100

More Conditions Fewer Conditions

10-Day Weather Forecast

Almanac

Astronomy

Apr. 27, 2015 Rise Set
Actual Time
Civil Twilight
Nautical Twilight
Astronomical Twilight
Moon
Length of Visible Light
Length of Day
Tomorrow will be .
, % of the Moon is Illuminated

Today's Extremes

State Highs State Lows

Community

WunderPhotos

Upload Photos

1,817,468 photos uploaded!

WunderBlogs® & News

Nearby

Air Quality

  Air Quality AQ Index Pollutant
Not available.

Snow Depth

Station Depth Elevation

Earthquake Activity

City Distance Mag. Time & Date
Minimum magnitude displayed is 2.5.

Coastal Water Temperatures

Place Temperature

Stations

Nearby Weather Stations

Station Location Temp. Windchill Dew Point Humidity Wind Precip. Elev Updated Type